CSCL Dalian — VRBH4 — position and weather

sailwx.info

Track history (hours):
 
Tides and Currents Weather Stations Pressure Air Temp Water Temp Dewpoint Dewpoint Depression Visibility Wind Speed Wind Dir Waves Ship Positions

CSCL Dalian

Last reported at 2018-Feb-15 13:44 UTC. Time now 2018-Feb-18 21:31 UTC.
Position S 22°16' E 165°53'.

Length 259.8 m; ; draft 11 m.

Type: Ship (hazmat cat A). MMSI: 477014600.

Date/timePositionNaut miles runAvg speedWind from/ knotsBaromVisibWave heightAir tempDewpointWater temp
2018-Feb-15 13:44S 22°16' E 165°53'416.8
2018-Feb-15 13:30S 22°17' E 165°57'816.7
2018-Feb-15 13:00S 22°20' E 166°05'816.7
2018-Feb-15 12:30S 22°23' E 166°13'1 0.1
2018-Feb-14 23:11S 22°22' E 166°15'2 9.2
2018-Feb-14 23:00S 22°23' E 166°14'611.6
2018-Feb-14 22:30S 22°27' E 166°18'714.2
2018-Feb-14 22:00S 22°32' E 166°24'4 7.5
2018-Feb-14 21:30S 22°33' E 166°20'3 4.6
2018-Feb-14 20:46S 22°33' E 166°16'1 5.1
2018-Feb-14 20:30S 22°33' E 166°15'3 6.8
2018-Feb-14 20:00S 22°32' E 166°11'1 2.1
2018-Feb-14 19:29S 22°31' E 166°11'  
2018-Feb-11 23:25S 35°50' E 175°27'1217.4
2018-Feb-11 22:42S 36°01' E 175°35'9317.8
2018-Feb-11 17:29S 37°29' E 176°11'714.3
2018-Feb-11 17:00S 37°36' E 176°12'4 7.8
2018-Feb-11 16:30S 37°39' E 176°11'1 1.1
2018-Feb-11 16:00S 37°40' E 176°11'0 0.0
2018-Feb-11 15:30S 37°40' E 176°11'0 0.0
2018-Feb-11 15:00S 37°40' E 176°11'0 0.0
2018-Feb-11 14:30S 37°40' E 176°11'0 0.0
2018-Feb-11 14:00S 37°40' E 176°11'0 0.0
2018-Feb-11 13:30S 37°40' E 176°11'0 0.0
2018-Feb-11 13:00S 37°40' E 176°11'0 0.0
2018-Feb-11 12:30S 37°40' E 176°11'0 0.0
2018-Feb-11 12:00S 37°40' E 176°11'0 0.0
2018-Feb-11 11:30S 37°40' E 176°11'0 0.0
2018-Feb-11 11:00S 37°40' E 176°11'0 0.0
2018-Feb-11 10:30S 37°40' E 176°11'0 0.0
2018-Feb-11 10:00S 37°40' E 176°11'0 0.0
2018-Feb-11 09:30S 37°40' E 176°11'0 0.0
2018-Feb-11 09:00S 37°40' E 176°11'0 0.0
2018-Feb-11 08:30S 37°40' E 176°11'0 0.0
2018-Feb-11 08:00S 37°40' E 176°11'0 0.0
2018-Feb-11 07:30S 37°40' E 176°11'0 0.0
2018-Feb-11 07:00S 37°40' E 176°11'0 0.0
2018-Feb-11 06:30S 37°40' E 176°11'0 0.0
2018-Feb-11 06:00S 37°40' E 176°11'0 0.0
2018-Feb-11 05:30S 37°40' E 176°11'0 0.0
2018-Feb-11 05:00S 37°40' E 176°11'0 0.0
2018-Feb-11 04:30S 37°40' E 176°11'0 0.0
2018-Feb-11 04:00S 37°40' E 176°11'0 0.0
2018-Feb-11 03:30S 37°40' E 176°11'0 0.0
2018-Feb-11 02:57S 37°40' E 176°11'0 0.0
2018-Feb-11 02:30S 37°40' E 176°11'0 0.1
2018-Feb-11 02:00S 37°40' E 176°10'0 0.1
2018-Feb-11 01:30S 37°40' E 176°11'0 0.0
2018-Feb-11 01:00S 37°40' E 176°11'0 0.0
2018-Feb-11 00:30S 37°40' E 176°11'0 0.3
2018-Feb-11 00:00S 37°40' E 176°11'4 7.1
2018-Feb-10 23:30S 37°36' E 176°11'3 5.4
2018-Feb-10 23:00S 37°34' E 176°13'3 5.4
2018-Feb-10 22:30S 37°33' E 176°16'  
2018-Feb-07 06:33S 45°48' E 170°43'111.0
2018-Feb-07 06:30S 45°48' E 170°42'3 1.6
2018-Feb-07 04:28S 45°49' E 170°38'0 0.0
2018-Feb-06 23:09S 45°49' E 170°38'0 0.0
2018-Feb-06 22:58S 45°49' E 170°38'0 0.0
2018-Feb-06 18:20S 45°49' E 170°38'0 0.0
2018-Feb-06 17:59S 45°49' E 170°38'0 0.5
2018-Feb-06 17:14S 45°49' E 170°38'1 4.2
2018-Feb-06 17:00S 45°48' E 170°39'8 6.6
2018-Feb-06 15:48S 45°42' E 170°46'2 5.3
2018-Feb-06 15:29S 45°41' E 170°48'4 7.3
2018-Feb-06 15:00S 45°38' E 170°52'5 8.8
2018-Feb-06 14:27S 45°35' E 170°57'  
Track history (hours):
 
Tides and Currents Weather Stations Pressure Air Temp Water Temp Dewpoint Dewpoint Depression Visibility Wind Speed Wind Dir Waves Ship Positions

CSCL Dalian

Last reported at 2018-Feb-15 13:44 UTC. Time now 2018-Feb-18 21:31 UTC.
Position S 22°16' E 165°53'.

Length 259.8 m; ; draft 11 m.

Type: Ship (hazmat cat A). MMSI: 477014600.

Date/timePositionNaut miles runAvg speedWind from/ knotsBaromVisibWave heightAir tempDewpointWater temp
2018-Feb-15 13:44S 22°16' E 165°53'416.8
2018-Feb-15 13:30S 22°17' E 165°57'816.7
2018-Feb-15 13:00S 22°20' E 166°05'816.7
2018-Feb-15 12:30S 22°23' E 166°13'1 0.1
2018-Feb-14 23:11S 22°22' E 166°15'2 9.2
2018-Feb-14 23:00S 22°23' E 166°14'611.6
2018-Feb-14 22:30S 22°27' E 166°18'714.2
2018-Feb-14 22:00S 22°32' E 166°24'4 7.5
2018-Feb-14 21:30S 22°33' E 166°20'3 4.6
2018-Feb-14 20:46S 22°33' E 166°16'1 5.1
2018-Feb-14 20:30S 22°33' E 166°15'3 6.8
2018-Feb-14 20:00S 22°32' E 166°11'1 2.1
2018-Feb-14 19:29S 22°31' E 166°11'  
2018-Feb-11 23:25S 35°50' E 175°27'1217.4
2018-Feb-11 22:42S 36°01' E 175°35'9317.8
2018-Feb-11 17:29S 37°29' E 176°11'714.3
2018-Feb-11 17:00S 37°36' E 176°12'4 7.8
2018-Feb-11 16:30S 37°39' E 176°11'1 1.1
2018-Feb-11 16:00S 37°40' E 176°11'0 0.0
2018-Feb-11 15:30S 37°40' E 176°11'0 0.0
2018-Feb-11 15:00S 37°40' E 176°11'0 0.0
2018-Feb-11 14:30S 37°40' E 176°11'0 0.0
2018-Feb-11 14:00S 37°40' E 176°11'0 0.0
2018-Feb-11 13:30S 37°40' E 176°11'0 0.0
2018-Feb-11 13:00S 37°40' E 176°11'0 0.0
2018-Feb-11 12:30S 37°40' E 176°11'0 0.0
2018-Feb-11 12:00S 37°40' E 176°11'0 0.0
2018-Feb-11 11:30S 37°40' E 176°11'0 0.0
2018-Feb-11 11:00S 37°40' E 176°11'0 0.0
2018-Feb-11 10:30S 37°40' E 176°11'0 0.0
2018-Feb-11 10:00S 37°40' E 176°11'0 0.0
2018-Feb-11 09:30S 37°40' E 176°11'0 0.0
2018-Feb-11 09:00S 37°40' E 176°11'0 0.0
2018-Feb-11 08:30S 37°40' E 176°11'0 0.0
2018-Feb-11 08:00S 37°40' E 176°11'0 0.0
2018-Feb-11 07:30S 37°40' E 176°11'0 0.0
2018-Feb-11 07:00S 37°40' E 176°11'0 0.0
2018-Feb-11 06:30S 37°40' E 176°11'0 0.0
2018-Feb-11 06:00S 37°40' E 176°11'0 0.0
2018-Feb-11 05:30S 37°40' E 176°11'0 0.0
2018-Feb-11 05:00S 37°40' E 176°11'0 0.0
2018-Feb-11 04:30S 37°40' E 176°11'0 0.0
2018-Feb-11 04:00S 37°40' E 176°11'0 0.0
2018-Feb-11 03:30S 37°40' E 176°11'0 0.0
2018-Feb-11 02:57S 37°40' E 176°11'0 0.0
2018-Feb-11 02:30S 37°40' E 176°11'0 0.1
2018-Feb-11 02:00S 37°40' E 176°10'0 0.1
2018-Feb-11 01:30S 37°40' E 176°11'0 0.0
2018-Feb-11 01:00S 37°40' E 176°11'0 0.0
2018-Feb-11 00:30S 37°40' E 176°11'0 0.3
2018-Feb-11 00:00S 37°40' E 176°11'4 7.1
2018-Feb-10 23:30S 37°36' E 176°11'3 5.4
2018-Feb-10 23:00S 37°34' E 176°13'3 5.4
2018-Feb-10 22:30S 37°33' E 176°16'  
2018-Feb-07 06:33S 45°48' E 170°43'111.0
2018-Feb-07 06:30S 45°48' E 170°42'3 1.6
2018-Feb-07 04:28S 45°49' E 170°38'0 0.0
2018-Feb-06 23:09S 45°49' E 170°38'0 0.0
2018-Feb-06 22:58S 45°49' E 170°38'0 0.0
2018-Feb-06 18:20S 45°49' E 170°38'0 0.0
2018-Feb-06 17:59S 45°49' E 170°38'0 0.5
2018-Feb-06 17:14S 45°49' E 170°38'1 4.2
2018-Feb-06 17:00S 45°48' E 170°39'8 6.6
2018-Feb-06 15:48S 45°42' E 170°46'2 5.3
2018-Feb-06 15:29S 45°41' E 170°48'4 7.3
2018-Feb-06 15:00S 45°38' E 170°52'5 8.8
2018-Feb-06 14:27S 45°35' E 170°57'  

Dump ship's entire track history